createdAt,value
2022-12-15T00:05:16.959Z,39.17
2022-12-15T00:10:42.614Z,43.63
2022-12-15T00:16:08.079Z,38.13
2022-12-15T00:21:35.468Z,37.30
2022-12-15T00:27:00.957Z,44.00
2022-12-15T00:32:27.341Z,62.30
2022-12-15T00:37:53.435Z,60.17
2022-12-15T00:43:01.091Z,53.43
2022-12-15T00:48:08.618Z,44.20
2022-12-15T00:53:34.502Z,45.87
2022-12-15T00:58:59.768Z,43.13
2022-12-15T01:04:25.210Z,52.00
2022-12-15T01:09:50.679Z,48.93
2022-12-15T01:15:17.636Z,49.17
2022-12-15T01:20:25.115Z,48.73
2022-12-15T01:25:34.660Z,50.77
2022-12-15T01:30:43.107Z,53.30
2022-12-15T01:36:01.228Z,58.07
2022-12-15T01:41:11.274Z,49.37
2022-12-15T01:46:22.188Z,50.37
2022-12-15T01:51:39.648Z,47.37
2022-12-15T01:56:48.929Z,53.97
2022-12-15T02:01:56.443Z,57.20
2022-12-15T02:07:04.672Z,52.20
2022-12-15T02:12:31.943Z,63.07
2022-12-15T02:23:19.031Z,54.05
2022-12-15T02:28:52.751Z,46.87
2022-12-15T02:34:03.811Z,48.50
2022-12-15T02:39:13.116Z,42.80
2022-12-15T02:44:32.845Z,49.47
2022-12-15T02:50:09.810Z,47.67
2022-12-15T02:55:33.282Z,50.10
2022-12-15T03:00:44.115Z,43.80
2022-12-15T03:05:55.465Z,47.90
2022-12-15T03:11:02.848Z,45.03
2022-12-15T03:16:10.448Z,44.87
2022-12-15T03:21:18.422Z,45.73
2022-12-15T03:26:25.986Z,41.10
2022-12-15T03:31:34.825Z,41.13
2022-12-15T03:36:42.457Z,38.87
2022-12-15T03:41:50.398Z,41.63
2022-12-15T03:47:02.992Z,37.47
2022-12-15T03:52:07.044Z,36.97
2022-12-15T03:57:15.787Z,35.23
2022-12-15T04:02:24.041Z,34.77
2022-12-15T04:07:32.220Z,34.23
2022-12-15T04:12:42.835Z,29.43
2022-12-15T04:17:50.308Z,38.87
2022-12-15T04:22:57.787Z,36.83
2022-12-15T04:28:24.400Z,34.10
2022-12-15T04:33:50.943Z,35.93
2022-12-15T04:39:16.890Z,35.77
2022-12-15T04:44:44.014Z,37.43
2022-12-15T04:50:11.791Z,34.63
2022-12-15T04:55:37.421Z,33.17
2022-12-15T05:01:02.949Z,39.27
2022-12-15T05:06:28.200Z,33.43
2022-12-15T05:11:54.240Z,38.70
2022-12-15T05:17:19.817Z,35.33
2022-12-15T05:22:45.050Z,36.40
2022-12-15T05:28:10.628Z,35.23
2022-12-15T05:33:18.275Z,33.37
2022-12-15T05:38:27.092Z,38.20
2022-12-15T05:43:35.116Z,33.60
2022-12-15T05:48:43.570Z,30.43
2022-12-15T05:53:51.217Z,30.93
2022-12-15T05:58:59.240Z,27.53
2022-12-15T06:04:07.800Z,29.60
2022-12-15T06:09:15.411Z,26.27
2022-12-15T06:14:22.746Z,28.80
2022-12-15T06:19:30.219Z,24.47
2022-12-15T06:24:39.436Z,26.67
2022-12-15T06:29:46.780Z,22.07
2022-12-15T06:34:54.128Z,23.27
2022-12-15T06:40:02.596Z,23.93
2022-12-15T06:45:11.272Z,25.27
2022-12-15T06:50:19.903Z,26.17
2022-12-15T06:55:27.627Z,23.10
2022-12-15T07:00:37.162Z,24.77
2022-12-15T07:05:46.260Z,29.10
2022-12-15T07:10:54.234Z,23.37
2022-12-15T07:16:04.400Z,21.23
2022-12-15T07:21:11.877Z,21.90
2022-12-15T07:26:19.291Z,16.37
2022-12-15T07:31:27.438Z,20.33
2022-12-15T07:36:35.315Z,16.67
2022-12-15T07:41:43.868Z,18.20
2022-12-15T07:46:51.982Z,14.57
2022-12-15T07:52:00.224Z,16.73
2022-12-15T07:57:15.256Z,18.17
2022-12-15T08:02:23.473Z,18.23
2022-12-15T08:07:32.814Z,14.40
2022-12-15T08:12:42.544Z,17.63
2022-12-15T08:17:55.548Z,16.57
2022-12-15T08:23:06.386Z,18.97
2022-12-15T08:28:14.204Z,16.57
2022-12-15T08:33:21.679Z,17.23
2022-12-15T08:38:29.382Z,17.03
2022-12-15T08:43:44.045Z,17.40
2022-12-15T08:48:47.579Z,14.60
2022-12-15T08:53:56.362Z,15.67
2022-12-15T08:59:04.569Z,14.80
2022-12-15T09:04:12.670Z,15.93
2022-12-15T09:09:20.145Z,14.87
2022-12-15T09:14:29.688Z,18.43
2022-12-15T09:19:37.243Z,15.50
2022-12-15T09:24:44.592Z,14.80
2022-12-15T09:29:52.049Z,17.13
2022-12-15T09:34:59.488Z,15.53
2022-12-15T09:40:08.524Z,16.07
2022-12-15T09:45:23.974Z,16.03
2022-12-15T09:50:37.213Z,15.07
2022-12-15T09:55:47.283Z,13.90
2022-12-15T10:01:26.221Z,14.07
2022-12-15T10:06:41.698Z,14.93
2022-12-15T10:12:05.184Z,13.10
2022-12-15T10:17:25.397Z,12.50
2022-12-15T10:22:36.015Z,12.10
2022-12-15T10:28:05.265Z,13.53
2022-12-15T10:33:20.703Z,15.87
2022-12-15T10:38:38.082Z,17.03
2022-12-15T10:43:47.777Z,18.13
2022-12-15T10:49:08.982Z,18.70
2022-12-15T10:54:19.507Z,14.43
2022-12-15T10:59:32.329Z,14.17
2022-12-15T11:04:40.826Z,14.63
2022-12-15T11:09:50.998Z,14.50
2022-12-15T11:15:00.116Z,15.00
2022-12-15T11:20:11.284Z,14.47
2022-12-15T11:25:28.100Z,11.93
2022-12-15T11:30:39.176Z,15.87
2022-12-15T11:36:01.783Z,15.53
2022-12-15T11:41:27.607Z,15.17
2022-12-15T11:46:43.363Z,13.70
2022-12-15T11:52:17.571Z,17.37
2022-12-15T11:57:56.947Z,16.23
2022-12-15T12:03:13.601Z,17.03
2022-12-15T12:08:28.509Z,14.13
2022-12-15T12:14:14.093Z,15.20
2022-12-15T12:19:39.388Z,17.83
2022-12-15T12:24:51.041Z,15.90
2022-12-15T12:30:05.489Z,14.17
2022-12-15T12:40:32.343Z,13.57
2022-12-15T12:45:51.055Z,12.80
2022-12-15T12:51:23.981Z,13.57
2022-12-15T12:56:45.486Z,13.73
2022-12-15T13:01:55.082Z,15.17
2022-12-15T13:07:07.757Z,15.77
2022-12-15T13:12:53.780Z,14.77
2022-12-15T13:18:24.095Z,14.45
2022-12-15T13:23:35.974Z,12.17
2022-12-15T13:28:51.193Z,15.37
2022-12-15T13:34:02.498Z,13.47
2022-12-15T13:39:20.571Z,13.60
2022-12-15T13:44:41.659Z,13.80
2022-12-15T13:49:57.362Z,16.33
2022-12-15T13:55:02.158Z,14.47
2022-12-15T14:00:22.071Z,14.90
2022-12-15T14:05:29.871Z,14.00
2022-12-15T14:10:42.654Z,13.70
2022-12-15T14:16:18.077Z,14.30
2022-12-15T14:21:27.635Z,14.77
2022-12-15T14:26:37.024Z,15.43
2022-12-15T14:31:48.075Z,16.60
2022-12-15T14:36:57.370Z,18.60
2022-12-15T14:42:05.124Z,20.90
2022-12-15T14:47:24.572Z,22.53
2022-12-15T14:52:40.545Z,21.17
2022-12-15T14:57:48.725Z,21.27
2022-12-15T15:03:11.588Z,14.70
2022-12-15T15:08:50.326Z,19.67
2022-12-15T15:14:07.423Z,19.50
2022-12-15T15:19:22.979Z,19.70
2022-12-15T15:24:40.051Z,17.43
2022-12-15T15:29:47.803Z,18.30
2022-12-15T15:34:55.097Z,18.17
2022-12-15T15:40:04.029Z,18.10
2022-12-15T15:45:16.186Z,20.37
2022-12-15T15:50:27.285Z,21.00
2022-12-15T15:55:39.574Z,28.63
2022-12-15T16:00:45.229Z,27.70
2022-12-15T16:05:54.489Z,30.77
2022-12-15T16:11:04.325Z,28.00
2022-12-15T16:16:18.215Z,26.47
2022-12-15T16:21:28.110Z,28.60
2022-12-15T16:26:37.330Z,29.50
2022-12-15T16:31:46.907Z,32.57
2022-12-15T16:36:55.619Z,28.73
2022-12-15T16:42:03.175Z,31.90
2022-12-15T16:47:10.618Z,36.77
2022-12-15T16:52:20.172Z,41.67
2022-12-15T16:57:27.865Z,43.53
2022-12-15T17:02:37.856Z,38.57
2022-12-15T17:07:56.296Z,37.90
2022-12-15T17:13:39.101Z,34.67
2022-12-15T17:18:42.801Z,42.47
2022-12-15T17:23:52.930Z,44.30
2022-12-15T17:29:02.778Z,44.97
2022-12-15T17:34:30.693Z,47.70
2022-12-15T17:39:39.426Z,44.50
2022-12-15T17:44:48.079Z,36.90
2022-12-15T17:49:55.872Z,45.67
2022-12-15T17:55:03.780Z,47.37
2022-12-15T18:00:17.391Z,48.00
2022-12-15T18:05:27.607Z,54.83
2022-12-15T18:10:38.608Z,57.40
2022-12-15T18:15:47.238Z,54.93
2022-12-15T18:20:58.675Z,52.17
2022-12-15T18:26:06.901Z,56.70
2022-12-15T18:31:28.002Z,53.00
2022-12-15T18:36:35.810Z,54.10
2022-12-15T18:41:43.423Z,64.13
2022-12-15T18:46:51.195Z,59.30
2022-12-15T18:52:00.075Z,54.40
2022-12-15T18:57:28.888Z,43.23
2022-12-15T19:02:36.581Z,40.27
2022-12-15T19:07:46.902Z,35.73
2022-12-15T19:12:58.678Z,41.30
2022-12-15T19:18:22.849Z,39.60
2022-12-15T19:23:33.606Z,36.60
2022-12-15T19:28:41.474Z,41.07
2022-12-15T19:33:49.723Z,44.03
2022-12-15T19:38:57.952Z,47.30
2022-12-15T19:44:10.054Z,47.83
2022-12-15T19:49:17.996Z,42.03
2022-12-15T19:54:27.226Z,46.37
2022-12-15T19:59:38.152Z,41.43
2022-12-15T20:04:46.814Z,53.60
2022-12-15T20:09:56.101Z,68.63
2022-12-15T20:15:18.727Z,51.20
2022-12-15T20:20:28.333Z,47.00
2022-12-15T20:25:38.853Z,42.43
2022-12-15T20:30:46.797Z,39.13
2022-12-15T20:35:55.604Z,44.90
2022-12-15T20:41:04.590Z,39.43
2022-12-15T20:46:20.341Z,49.67
2022-12-15T20:51:37.180Z,40.50
2022-12-15T20:56:44.694Z,34.88
2022-12-15T21:01:53.884Z,37.67
2022-12-15T21:07:02.858Z,36.67
2022-12-15T21:12:26.199Z,39.17
2022-12-15T21:17:37.411Z,35.87
2022-12-15T21:22:44.549Z,47.57
2022-12-15T21:27:52.406Z,39.57
2022-12-15T21:32:59.972Z,43.97
2022-12-15T21:38:08.054Z,44.97
2022-12-15T21:43:16.033Z,55.10
2022-12-15T21:48:43.645Z,51.00
2022-12-15T21:53:51.308Z,49.27
2022-12-15T21:58:59.893Z,45.90
2022-12-15T22:04:10.556Z,47.47
2022-12-15T22:09:19.164Z,46.23
2022-12-15T22:14:36.203Z,44.63
2022-12-15T22:19:48.770Z,47.40
2022-12-15T22:24:56.765Z,46.33
2022-12-15T22:30:06.273Z,43.80
2022-12-15T22:35:17.107Z,47.77
2022-12-15T22:40:24.529Z,46.53
2022-12-15T22:45:32.901Z,47.03
2022-12-15T22:50:42.393Z,48.33
2022-12-15T22:55:51.769Z,49.83
2022-12-15T23:01:00.157Z,44.30
2022-12-15T23:06:08.206Z,47.07
2022-12-15T23:11:35.443Z,47.27
2022-12-15T23:16:44.065Z,44.63
2022-12-15T23:21:54.115Z,41.90
2022-12-15T23:27:01.568Z,55.77
2022-12-15T23:32:09.515Z,51.00
2022-12-15T23:37:16.964Z,43.47
2022-12-15T23:42:25.361Z,40.10
2022-12-15T23:47:33.257Z,44.37
2022-12-15T23:52:40.814Z,50.67
2022-12-15T23:57:48.348Z,52.83
